Time;durP1;ratioP1;P1;durP2;ratioP2;P2;SDS_P1;SDS_P2;PMS_P1;PMS_P2;Temp;Humidity;BMP_temperature;BMP_pressure;BME280_temperature;BME280_humidity;BME280_pressure;Samples;Min_cycle;Max_cycle;Signal;HPM_P1;HPM_P2
2022/04/02 00:00:33;;;;;;;11.53;9.20;;;4.40;97.20;;;;;;5055684;28;20494;-61
2022/04/02 00:03:00;;;;;;;11.10;9.90;;;4.40;97.10;;;;;;5072808;28;20506;-61
2022/04/02 00:05:28;;;;;;;10.60;9.60;;;4.40;97.10;;;;;;5052599;28;20452;-60
2022/04/02 00:07:55;;;;;;;11.53;9.57;;;4.40;97.30;;;;;;5053427;28;20559;-60
2022/04/02 00:10:22;;;;;;;10.03;9.03;;;4.40;97.30;;;;;;5052535;28;20457;-60
2022/04/02 00:12:49;;;;;;;11.33;9.77;;;4.40;97.40;;;;;;5053394;28;20441;-60
2022/04/02 00:15:16;;;;;;;12.90;10.20;;;4.40;97.50;;;;;;5053163;28;20546;-61
2022/04/02 00:17:42;;;;;;;13.33;9.40;;;4.40;97.10;;;;;;5073386;28;20805;-60
2022/04/02 00:20:10;;;;;;;10.47;8.80;;;4.40;97.20;;;;;;5057115;28;20472;-60
2022/04/02 00:22:38;;;;;;;10.37;9.30;;;4.40;97.40;;;;;;5062838;28;20492;-60
2022/04/02 00:25:05;;;;;;;12.50;9.97;;;4.40;97.40;;;;;;5066994;28;20467;-60
2022/04/02 00:27:32;;;;;;;10.27;9.00;;;4.40;97.40;;;;;;5073248;28;20449;-60
2022/04/02 00:29:58;;;;;;;10.97;9.07;;;4.40;97.40;;;;;;5072063;28;20464;-60
2022/04/02 00:32:25;;;;;;;11.03;7.87;;;4.40;97.50;;;;;;5071646;28;20484;-60
2022/04/02 00:34:52;;;;;;;9.33;7.33;;;4.40;97.50;;;;;;5075664;28;20471;-61
2022/04/02 00:37:19;;;;;;;8.07;7.27;;;4.40;97.20;;;;;;5079109;28;20459;-61
2022/04/02 00:39:47;;;;;;;10.13;7.43;;;4.40;97.10;;;;;;5077158;28;20461;-61
2022/04/02 00:42:14;;;;;;;7.83;7.00;;;4.40;97.20;;;;;;5079703;28;20511;-61
2022/04/02 00:44:40;;;;;;;7.17;6.10;;;4.40;97.20;;;;;;5078052;28;20475;-60
2022/04/02 00:47:08;;;;;;;8.50;6.97;;;4.40;97.10;;;;;;5063530;28;20501;-60
2022/04/02 00:49:34;;;;;;;6.43;5.83;;;4.40;97.10;;;;;;5059250;28;20472;-61
2022/04/02 00:52:01;;;;;;;7.80;7.00;;;4.40;97.10;;;;;;5067617;28;20473;-60
2022/04/02 00:54:28;;;;;;;8.63;6.20;;;4.40;97.00;;;;;;5078342;28;20470;-61
2022/04/02 00:56:56;;;;;;;7.10;6.43;;;4.30;96.90;;;;;;5078909;28;20471;-61
2022/04/02 00:59:23;;;;;;;6.93;5.30;;;4.40;96.90;;;;;;5076528;28;20975;-61
2022/04/02 01:01:50;;;;;;;7.13;5.50;;;4.40;96.80;;;;;;5062674;28;20985;-60
2022/04/02 01:04:17;;;;;;;7.03;5.37;;;4.30;96.60;;;;;;5060927;28;20457;-61
2022/04/02 01:06:44;;;;;;;7.33;5.30;;;4.30;96.80;;;;;;5078751;28;20463;-60
2022/04/02 01:09:11;;;;;;;6.33;5.40;;;4.30;96.50;;;;;;5078163;28;20462;-61
2022/04/02 01:11:39;;;;;;;5.73;4.93;;;4.30;97.10;;;;;;5074697;28;20571;-61
2022/04/02 01:14:08;;;;;;;6.10;5.23;;;4.30;96.60;;;;;;5078510;28;20455;-61
2022/04/02 01:16:35;;;;;;;7.80;5.70;;;4.30;96.60;;;;;;5078024;28;20468;-60
2022/04/02 01:19:03;;;;;;;7.97;4.90;;;4.30;96.60;;;;;;5077226;28;20475;-61
2022/04/02 01:21:31;;;;;;;6.07;4.60;;;4.20;96.60;;;;;;5078554;28;20586;-61
2022/04/02 01:24:00;;;;;;;6.07;4.80;;;4.30;96.70;;;;;;5079132;28;20476;-61
2022/04/02 01:26:27;;;;;;;5.70;5.20;;;4.30;96.70;;;;;;5078777;28;20539;-61
2022/04/02 01:28:56;;;;;;;8.50;5.20;;;4.20;96.70;;;;;;5069600;28;20475;-61
2022/04/02 01:31:23;;;;;;;6.80;5.57;;;4.20;96.60;;;;;;5058652;28;20495;-60
2022/04/02 01:33:51;;;;;;;5.97;5.30;;;4.30;96.60;;;;;;5058733;28;20461;-61
2022/04/02 01:36:18;;;;;;;7.10;5.30;;;4.30;96.40;;;;;;5071615;28;20808;-61
2022/04/02 01:38:45;;;;;;;10.20;5.30;;;4.30;96.40;;;;;;5065264;28;20464;-61
2022/04/02 01:41:14;;;;;;;10.90;5.10;;;4.20;96.40;;;;;;5077875;28;20998;-61
2022/04/02 01:43:40;;;;;;;6.00;4.90;;;4.20;96.40;;;;;;5078934;28;21029;-61
2022/04/02 01:46:08;;;;;;;5.60;4.73;;;4.20;96.40;;;;;;5061390;28;20464;-61
2022/04/02 01:48:35;;;;;;;8.60;4.70;;;4.30;96.50;;;;;;5076120;28;20452;-61
2022/04/02 01:51:02;;;;;;;5.97;4.27;;;4.30;96.40;;;;;;5074692;28;21010;-61
2022/04/02 01:53:28;;;;;;;8.20;4.67;;;4.30;96.20;;;;;;5075135;28;20464;-61
2022/04/02 01:55:55;;;;;;;5.70;4.27;;;4.30;96.10;;;;;;5064351;28;20475;-61
2022/04/02 01:58:24;;;;;;;6.17;4.40;;;4.30;96.30;;;;;;5055950;28;20456;-61
2022/04/02 02:00:51;;;;;;;6.70;4.30;;;4.30;96.10;;;;;;5058755;28;20888;-61
2022/04/02 02:03:17;;;;;;;6.73;4.43;;;4.40;96.20;;;;;;5069694;28;20444;-61
2022/04/02 02:05:44;;;;;;;4.43;4.03;;;4.40;96.10;;;;;;5066130;28;20456;-61
2022/04/02 02:08:11;;;;;;;6.43;4.53;;;4.40;96.10;;;;;;5071284;28;20463;-61
2022/04/02 02:10:38;;;;;;;7.80;3.57;;;4.40;96.00;;;;;;5074386;28;20468;-61
2022/04/02 02:13:05;;;;;;;9.10;3.60;;;4.40;96.30;;;;;;5075667;28;20452;-61
2022/04/02 02:15:33;;;;;;;5.03;3.40;;;4.40;96.00;;;;;;5072136;28;20491;-61
2022/04/02 02:18:00;;;;;;;6.77;4.30;;;4.50;96.10;;;;;;5075477;28;20452;-61
2022/04/02 02:20:26;;;;;;;6.03;4.60;;;4.50;96.00;;;;;;5073044;28;20479;-61
2022/04/02 02:22:53;;;;;;;5.50;4.00;;;4.50;95.90;;;;;;5075342;28;20484;-61
2022/04/02 02:25:21;;;;;;;4.97;4.23;;;4.50;95.80;;;;;;5074248;28;20470;-61
2022/04/02 02:27:48;;;;;;;6.10;4.13;;;4.40;95.60;;;;;;5074908;28;20459;-60
2022/04/02 02:30:17;;;;;;;4.17;3.77;;;4.50;95.60;;;;;;5072444;28;20475;-61
2022/04/02 02:32:45;;;;;;;9.53;4.00;;;4.50;95.70;;;;;;5055251;28;20468;-61
2022/04/02 02:38:09;;;;;;;5.20;3.90;;;4.50;95.40;;;;;;5074927;28;20416;-61
2022/04/02 02:40:37;;;;;;;5.77;3.90;;;4.60;95.30;;;;;;5070747;28;20471;-61
2022/04/02 02:43:05;;;;;;;6.23;4.80;;;4.50;95.00;;;;;;5074690;28;20490;-61
2022/04/02 02:45:33;;;;;;;5.73;4.50;;;4.50;94.70;;;;;;5066378;28;20468;-61
2022/04/02 02:48:03;;;;;;;4.53;4.03;;;4.40;94.80;;;;;;5054561;28;21006;-61
2022/04/02 02:50:29;;;;;;;6.30;4.37;;;4.40;95.20;;;;;;5061483;28;20464;-61
2022/04/02 02:52:57;;;;;;;4.80;3.93;;;4.40;95.40;;;;;;5074901;28;20433;-61
2022/04/02 02:55:24;;;;;;;6.43;3.70;;;4.30;95.20;;;;;;5070207;28;20472;-61
2022/04/02 02:57:50;;;;;;;6.10;4.67;;;4.30;95.10;;;;;;5054586;28;20463;-61
2022/04/02 03:00:19;;;;;;;4.73;3.63;;;4.30;95.10;;;;;;5057535;28;20464;-61
2022/04/02 03:02:46;;;;;;;4.97;3.40;;;4.30;95.00;;;;;;5054477;28;20489;-61
2022/04/02 03:05:16;;;;;;;4.17;3.60;;;4.30;95.20;;;;;;5061202;28;20467;-61
2022/04/02 03:07:48;;;;;;;5.30;3.83;;;4.30;95.30;;;;;;5073790;28;20474;-61
2022/04/02 03:10:16;;;;;;;6.00;3.97;;;4.40;95.00;;;;;;5068837;28;20465;-61
2022/04/02 03:12:44;;;;;;;5.00;3.53;;;4.40;95.00;;;;;;5054372;28;20493;-61
2022/04/02 03:15:11;;;;;;;4.43;3.30;;;4.40;95.10;;;;;;5067503;28;20469;-62
2022/04/02 03:17:38;;;;;;;6.23;3.37;;;4.40;95.10;;;;;;5054104;28;20453;-61
2022/04/02 03:20:06;;;;;;;5.77;4.03;;;4.40;95.20;;;;;;5053252;28;20476;-61
2022/04/02 03:22:39;;;;;;;5.30;4.17;;;4.40;95.00;;;;;;5054244;28;20485;-61
2022/04/02 03:25:09;;;;;;;5.30;3.23;;;4.40;95.00;;;;;;5053296;28;20521;-61
2022/04/02 03:27:36;;;;;;;6.30;3.40;;;4.50;94.90;;;;;;5074216;28;20429;-61
2022/04/02 03:30:03;;;;;;;4.33;3.77;;;4.40;94.80;;;;;;5072987;28;20471;-62
2022/04/02 03:32:29;;;;;;;4.50;3.10;;;4.50;94.80;;;;;;5073070;28;20535;-61
2022/04/02 03:34:57;;;;;;;3.87;3.33;;;4.50;94.60;;;;;;5073271;28;20464;-61
2022/04/02 03:37:24;;;;;;;5.00;3.00;;;4.50;94.50;;;;;;5073319;28;20463;-61
2022/04/02 03:39:52;;;;;;;3.50;3.13;;;4.50;94.50;;;;;;5060009;28;20468;-61
2022/04/02 03:42:20;;;;;;;3.73;3.20;;;4.50;94.50;;;;;;5065654;28;20851;-61
2022/04/02 03:44:47;;;;;;;4.00;3.07;;;4.60;94.40;;;;;;5072869;28;20465;-61
2022/04/02 03:47:15;;;;;;;4.97;3.23;;;4.60;94.10;;;;;;5055987;28;20825;-60
2022/04/02 03:49:45;;;;;;;3.50;2.83;;;4.60;93.90;;;;;;5060843;28;20464;-61
2022/04/02 03:52:12;;;;;;;3.80;3.33;;;4.60;93.70;;;;;;5073887;28;20464;-61
2022/04/02 03:54:39;;;;;;;3.33;2.80;;;4.60;93.50;;;;;;5073029;28;20465;-61
2022/04/02 03:57:09;;;;;;;3.80;3.10;;;4.60;93.20;;;;;;5073037;28;20554;-61
2022/04/02 03:59:37;;;;;;;2.80;2.60;;;4.60;93.10;;;;;;5065649;28;20979;-61
2022/04/02 04:02:05;;;;;;;6.43;3.20;;;4.60;93.00;;;;;;5053830;28;20499;-61
2022/04/02 04:04:32;;;;;;;3.50;2.93;;;4.60;92.80;;;;;;5062393;28;20472;-61
2022/04/02 04:06:59;;;;;;;6.70;3.00;;;4.60;92.70;;;;;;5072238;28;20500;-61
2022/04/02 04:09:27;;;;;;;6.40;3.17;;;4.60;92.60;;;;;;5070536;28;20467;-61
2022/04/02 04:11:54;;;;;;;4.27;2.97;;;4.60;92.50;;;;;;5072594;28;20487;-61
2022/04/02 04:14:24;;;;;;;6.37;3.57;;;4.60;92.40;;;;;;5073463;28;20449;-61
2022/04/02 04:16:51;;;;;;;6.10;3.30;;;4.50;92.10;;;;;;5071382;28;20495;-61
2022/04/02 04:19:18;;;;;;;4.33;3.57;;;4.50;91.90;;;;;;5064246;28;20481;-61
2022/04/02 04:21:45;;;;;;;4.40;2.97;;;4.50;91.70;;;;;;5053108;28;20499;-61
2022/04/02 04:24:12;;;;;;;6.83;3.40;;;4.50;91.40;;;;;;5060227;28;20468;-61
2022/04/02 04:26:39;;;;;;;5.80;3.30;;;4.40;91.30;;;;;;5072502;28;20468;-61
2022/04/02 04:29:06;;;;;;;6.57;4.17;;;4.40;91.10;;;;;;5066201;28;20559;-61
2022/04/02 04:31:34;;;;;;;3.83;2.70;;;4.30;91.00;;;;;;5064129;28;20489;-61
2022/04/02 04:34:01;;;;;;;3.60;2.90;;;4.30;91.10;;;;;;5072482;28;20460;-61
2022/04/02 04:36:29;;;;;;;7.40;3.53;;;4.30;90.70;;;;;;5072481;28;20959;-61
2022/04/02 04:38:57;;;;;;;3.90;3.20;;;4.30;90.70;;;;;;5071915;28;20822;-61
2022/04/02 04:41:24;;;;;;;5.77;3.33;;;4.30;90.60;;;;;;5073543;28;20469;-61
2022/04/02 04:43:51;;;;;;;5.53;4.07;;;4.20;90.50;;;;;;5070894;28;20453;-61
2022/04/02 04:46:20;;;;;;;7.30;3.57;;;4.30;90.50;;;;;;5062539;28;20460;-61
2022/04/02 04:48:49;;;;;;;4.43;3.57;;;4.30;90.40;;;;;;5054226;28;20479;-61
2022/04/02 04:51:18;;;;;;;4.60;3.30;;;4.30;90.10;;;;;;5073255;28;20468;-61
2022/04/02 04:53:45;;;;;;;8.33;3.27;;;4.30;90.00;;;;;;5072290;28;20459;-61
2022/04/02 04:56:12;;;;;;;3.03;2.73;;;4.30;89.80;;;;;;5068502;28;20464;-61
2022/04/02 04:58:39;;;;;;;3.53;3.23;;;4.30;88.80;;;;;;5052915;28;20449;-61
2022/04/02 05:01:05;;;;;;;3.93;2.70;;;4.30;88.50;;;;;;5057621;28;20848;-62
2022/04/02 05:03:32;;;;;;;5.50;3.27;;;4.20;88.30;;;;;;5052746;28;20486;-61
2022/04/02 05:06:01;;;;;;;4.17;2.77;;;4.30;88.50;;;;;;5070582;28;20503;-62
2022/04/02 05:08:28;;;;;;;3.87;3.40;;;4.30;88.20;;;;;;5066774;28;20473;-62
2022/04/02 05:10:55;;;;;;;3.50;2.50;;;4.30;88.70;;;;;;5071630;28;20471;-62
2022/04/02 05:13:23;;;;;;;2.50;2.30;;;4.20;88.90;;;;;;5054503;28;20984;-62
2022/04/02 05:15:50;;;;;;;3.20;2.20;;;4.30;89.10;;;;;;5057716;28;20480;-63
2022/04/02 05:18:17;;;;;;;3.20;2.17;;;4.20;87.60;;;;;;5072562;28;20463;-62
2022/04/02 05:20:43;;;;;;;3.90;2.53;;;4.10;86.50;;;;;;5071577;28;20990;-63
2022/04/02 05:23:12;;;;;;;3.10;2.80;;;4.20;87.00;;;;;;5063574;28;20489;-62
2022/04/02 05:25:39;;;;;;;3.13;2.87;;;4.20;87.00;;;;;;5061357;28;20824;-62
2022/04/02 05:28:07;;;;;;;4.47;2.60;;;4.20;87.70;;;;;;5056440;28;20476;-63
2022/04/02 05:30:33;;;;;;;3.70;2.60;;;4.20;88.20;;;;;;5056112;28;20469;-63
2022/04/02 05:33:00;;;;;;;5.10;2.87;;;4.20;87.70;;;;;;5063762;28;20483;-63
2022/04/02 05:35:27;;;;;;;3.30;2.17;;;4.20;88.00;;;;;;5075591;28;20460;-63
2022/04/02 05:37:54;;;;;;;2.80;2.47;;;4.20;87.80;;;;;;5073627;28;20610;-63
2022/04/02 05:40:22;;;;;;;4.87;2.50;;;4.20;87.20;;;;;;5075053;28;20457;-63
2022/04/02 05:42:49;;;;;;;5.20;2.77;;;4.20;85.90;;;;;;5075308;28;20483;-64
2022/04/02 05:45:16;;;;;;;2.33;2.13;;;4.20;86.60;;;;;;5074168;28;20448;-64
2022/04/02 05:47:44;;;;;;;3.10;2.40;;;4.20;87.20;;;;;;5057141;28;20453;-63
2022/04/02 05:50:12;;;;;;;3.20;2.60;;;4.30;87.00;;;;;;5059064;28;20460;-64
2022/04/02 05:52:39;;;;;;;3.00;2.03;;;4.30;86.60;;;;;;5056069;28;20471;-63
2022/04/02 05:55:07;;;;;;;4.00;2.23;;;4.30;86.30;;;;;;5070828;28;20458;-63
2022/04/02 05:57:35;;;;;;;4.77;2.43;;;4.40;86.40;;;;;;5056057;28;20453;-64
2022/04/02 06:00:03;;;;;;;2.80;2.20;;;4.30;86.30;;;;;;5074134;28;20989;-63
2022/04/02 06:02:29;;;;;;;3.60;2.80;;;4.40;86.50;;;;;;5054951;28;20485;-63
2022/04/02 06:04:56;;;;;;;2.87;2.17;;;4.40;85.80;;;;;;5055714;28;20457;-63
2022/04/02 06:07:23;;;;;;;3.47;1.83;;;4.40;86.60;;;;;;5055730;28;20467;-63
2022/04/02 06:09:50;;;;;;;2.53;2.27;;;4.50;85.30;;;;;;5055224;28;20945;-63
2022/04/02 06:12:16;;;;;;;3.23;2.50;;;4.40;85.10;;;;;;5055584;28;20484;-64
2022/04/02 06:14:44;;;;;;;3.33;2.60;;;4.50;84.60;;;;;;5053966;28;20461;-63
2022/04/02 06:17:11;;;;;;;4.80;2.50;;;4.40;84.20;;;;;;5059714;28;20827;-63
2022/04/02 06:19:38;;;;;;;4.17;2.93;;;4.40;84.20;;;;;;5074446;28;20483;-63
2022/04/02 06:22:06;;;;;;;3.83;3.00;;;4.40;84.60;;;;;;5074337;28;20989;-63
2022/04/02 06:24:34;;;;;;;6.10;5.10;;;4.40;84.50;;;;;;5067003;28;20458;-64
2022/04/02 06:27:01;;;;;;;5.73;3.70;;;4.50;84.70;;;;;;5071296;28;20460;-63
2022/04/02 06:29:28;;;;;;;3.30;2.90;;;4.50;84.50;;;;;;5066975;28;20461;-63
2022/04/02 06:31:56;;;;;;;3.67;2.50;;;4.50;85.20;;;;;;5067973;28;20488;-64
2022/04/02 06:34:23;;;;;;;3.83;3.13;;;4.50;84.90;;;;;;5069721;28;20988;-63
2022/04/02 06:36:50;;;;;;;5.53;3.43;;;4.50;84.70;;;;;;5063222;28;20437;-64
2022/04/02 06:39:17;;;;;;;5.10;3.60;;;4.50;84.50;;;;;;5074180;28;20471;-64
2022/04/02 06:41:44;;;;;;;4.33;2.50;;;4.60;84.00;;;;;;5071378;28;20511;-63
2022/04/02 06:44:11;;;;;;;2.73;2.40;;;4.60;84.20;;;;;;5070379;28;20485;-64
2022/04/02 06:46:38;;;;;;;2.63;2.43;;;4.60;83.50;;;;;;5058889;28;20464;-64
2022/04/02 06:49:07;;;;;;;3.73;2.80;;;4.60;83.80;;;;;;5071505;28;20882;-63
2022/04/02 06:51:34;;;;;;;4.87;2.90;;;4.60;83.20;;;;;;5074826;28;20912;-63
2022/04/02 06:54:01;;;;;;;3.10;2.50;;;4.70;83.40;;;;;;5073679;28;20459;-63
2022/04/02 06:56:28;;;;;;;5.83;3.10;;;4.70;83.60;;;;;;5073630;28;20460;-64
2022/04/02 06:58:55;;;;;;;3.30;3.00;;;4.80;83.00;;;;;;5072834;28;20468;-63
2022/04/02 07:01:21;;;;;;;3.77;3.23;;;4.90;83.40;;;;;;5058997;28;20481;-63
2022/04/02 07:03:48;;;;;;;10.53;3.50;;;4.90;82.90;;;;;;5054561;28;20574;-64
2022/04/02 07:06:16;;;;;;;2.90;2.60;;;5.00;82.50;;;;;;5073702;28;20479;-63
2022/04/02 07:08:43;;;;;;;6.70;3.37;;;5.00;81.60;;;;;;5068152;28;20460;-63
2022/04/02 07:11:10;;;;;;;3.43;3.13;;;5.10;81.80;;;;;;5054223;28;20988;-63
2022/04/02 07:13:36;;;;;;;2.93;2.63;;;5.10;81.90;;;;;;5060588;28;20465;-63
2022/04/02 07:16:04;;;;;;;6.00;4.20;;;5.10;81.30;;;;;;5060668;28;20465;-63
2022/04/02 07:18:34;;;;;;;3.47;3.17;;;5.20;81.10;;;;;;5055893;28;20469;-64
2022/04/02 07:21:02;;;;;;;4.93;4.53;;;5.30;81.10;;;;;;5074294;28;20568;-63
2022/04/02 07:23:31;;;;;;;5.43;2.80;;;5.30;81.00;;;;;;5066165;28;20517;-63
2022/04/02 07:25:58;;;;;;;3.57;3.07;;;5.40;80.80;;;;;;5057465;28;20492;-63
2022/04/02 07:28:25;;;;;;;3.70;3.10;;;5.50;78.90;;;;;;5060292;28;20922;-63
2022/04/02 07:30:52;;;;;;;3.53;2.70;;;5.50;78.90;;;;;;5065285;28;20480;-66
2022/04/02 07:33:19;;;;;;;3.93;3.50;;;5.50;78.60;;;;;;5061118;28;20461;-63
2022/04/02 07:35:54;;;;;;;2.80;2.43;;;5.50;78.30;;;;;;5065319;28;20500;-63
2022/04/02 07:38:23;;;;;;;4.73;2.23;;;5.50;78.00;;;;;;5073876;28;20938;-62
2022/04/02 07:41:05;;;;;;;2.60;2.40;;;5.60;77.50;;;;;;5073711;28;20472;-62
2022/04/02 07:43:40;;;;;;;3.40;2.67;;;5.60;78.30;;;;;;5073263;28;20476;-62
2022/04/02 07:46:14;;;;;;;2.50;2.17;;;5.70;78.20;;;;;;5073883;28;20428;-62
2022/04/02 07:48:42;;;;;;;3.43;2.30;;;5.60;77.80;;;;;;5073965;28;20425;-62
2022/04/02 07:51:12;;;;;;;3.00;2.17;;;5.70;77.10;;;;;;5073432;28;20905;-62
2022/04/02 07:53:44;;;;;;;3.07;2.57;;;5.70;76.70;;;;;;5073886;28;20530;-62
2022/04/02 07:56:15;;;;;;;3.13;2.50;;;5.80;77.00;;;;;;5073889;28;20437;-62
2022/04/02 07:58:46;;;;;;;2.40;2.20;;;5.90;75.90;;;;;;5074259;28;20445;-61
2022/04/02 08:01:16;;;;;;;4.87;2.70;;;5.90;76.00;;;;;;5073746;28;20543;-62
2022/04/02 08:03:45;;;;;;;3.77;2.47;;;6.00;77.10;;;;;;5073471;28;20917;-62
2022/04/02 08:06:13;;;;;;;3.10;2.63;;;6.10;75.30;;;;;;5073336;28;20951;-62
2022/04/02 08:08:41;;;;;;;3.93;2.27;;;6.10;73.90;;;;;;5073638;28;20449;-62
2022/04/02 08:11:10;;;;;;;3.33;2.80;;;6.20;74.80;;;;;;5073473;28;20561;-62
2022/04/02 08:13:41;;;;;;;4.07;2.90;;;6.20;74.60;;;;;;5073746;28;20440;-62
2022/04/02 08:16:09;;;;;;;3.10;2.40;;;6.30;75.40;;;;;;5073387;28;20436;-62
2022/04/02 08:18:35;;;;;;;2.47;2.27;;;6.30;75.60;;;;;;5072950;28;20892;-62
2022/04/02 08:21:03;;;;;;;4.50;2.67;;;6.30;74.60;;;;;;5073186;28;20475;-61
2022/04/02 08:23:30;;;;;;;4.50;2.30;;;6.30;72.90;;;;;;5073593;28;20525;-62
2022/04/02 08:26:07;;;;;;;4.30;2.67;;;6.40;73.00;;;;;;5073459;28;20513;-62
2022/04/02 08:28:49;;;;;;;3.83;2.60;;;6.40;73.20;;;;;;5073366;28;20436;-62
2022/04/02 08:31:25;;;;;;;3.57;2.60;;;6.50;73.40;;;;;;5073346;28;20472;-62
2022/04/02 08:34:01;;;;;;;4.63;2.73;;;6.50;73.30;;;;;;5073371;28;20429;-62
2022/04/02 08:36:35;;;;;;;2.80;2.47;;;6.60;72.70;;;;;;5073335;28;20464;-62
2022/04/02 08:39:05;;;;;;;3.57;2.67;;;6.70;72.10;;;;;;5073345;28;20443;-62
2022/04/02 08:42:08;;;;;;;3.00;2.70;;;6.80;71.60;;;;;;5073102;28;20476;-62
2022/04/02 08:45:04;;;;;;;3.13;2.50;;;6.90;71.10;;;;;;5073161;28;20921;-62
2022/04/02 08:48:20;;;;;;;2.40;2.27;;;7.00;70.00;;;;;;5073143;28;20528;-62
2022/04/02 08:50:48;;;;;;;4.20;2.50;;;7.00;69.50;;;;;;5073189;28;20520;-62
2022/04/02 08:53:20;;;;;;;5.63;3.13;;;7.10;71.60;;;;;;5073132;28;20444;-63
2022/04/02 08:55:50;;;;;;;3.13;2.87;;;7.20;69.60;;;;;;5074633;28;20444;-63
2022/04/02 08:58:36;;;;;;;3.83;3.03;;;7.30;70.50;;;;;;5077228;28;20448;-62
2022/04/02 09:01:10;;;;;;;2.73;2.50;;;7.30;68.10;;;;;;5077010;28;20476;-63
2022/04/02 09:04:13;;;;;;;2.43;2.00;;;7.30;66.90;;;;;;5076880;28;20484;-62
2022/04/02 09:07:16;;;;;;;3.30;2.50;;;7.40;67.30;;;;;;5076940;28;20819;-61
2022/04/02 09:10:25;;;;;;;6.77;3.27;;;7.50;66.60;;;;;;5076863;28;20448;-62
2022/04/02 09:13:09;;;;;;;4.27;3.13;;;7.60;65.80;;;;;;5076796;28;20452;-62
2022/04/02 09:15:50;;;;;;;3.13;2.80;;;7.70;65.50;;;;;;5076505;28;20468;-62
2022/04/02 09:18:31;;;;;;;3.83;2.83;;;7.80;64.60;;;;;;5076574;28;20428;-62
2022/04/02 09:21:01;;;;;;;3.43;3.10;;;7.80;63.20;;;;;;5076423;28;20467;-63
2022/04/02 09:23:43;;;;;;;4.33;3.20;;;7.80;63.20;;;;;;5076142;28;20483;-62
2022/04/02 09:26:37;;;;;;;2.90;2.60;;;8.00;64.10;;;;;;5076627;28;20432;-63
2022/04/02 09:29:15;;;;;;;3.93;2.77;;;8.00;64.20;;;;;;5076232;28;20433;-63
2022/04/02 09:32:08;;;;;;;3.10;2.80;;;8.00;63.30;;;;;;5076592;28;20551;-62
2022/04/02 09:35:20;;;;;;;2.60;2.33;;;8.00;63.40;;;;;;5076363;28;20425;-62
2022/04/02 09:38:21;;;;;;;4.70;3.00;;;8.10;62.90;;;;;;5040377;28;20453;-62
2022/04/02 09:40:49;;;;;;;5.37;4.07;;;8.20;62.60;;;;;;5076394;28;20471;-64
2022/04/02 09:43:26;;;;;;;4.90;3.30;;;8.30;61.60;;;;;;5076386;28;20484;-63
2022/04/02 09:46:26;;;;;;;4.00;2.83;;;8.40;61.60;;;;;;5076278;28;20437;-62
2022/04/02 09:49:00;;;;;;;2.40;2.20;;;8.40;60.60;;;;;;5076255;28;20474;-63
2022/04/02 09:51:35;;;;;;;2.97;2.53;;;8.40;60.80;;;;;;5076059;28;20515;-64
2022/04/02 09:54:05;;;;;;;2.77;2.57;;;8.30;61.10;;;;;;5076146;28;20424;-63
2022/04/02 09:56:36;;;;;;;5.40;3.60;;;8.30;60.30;;;;;;5075770;28;20951;-64
2022/04/02 09:59:05;;;;;;;3.87;2.93;;;8.20;60.40;;;;;;5076135;28;20445;-64
2022/04/02 10:01:37;;;;;;;3.03;2.73;;;7.90;60.60;;;;;;5075991;28;20473;-63
2022/04/02 10:04:15;;;;;;;2.80;2.60;;;7.90;60.10;;;;;;5075903;28;20473;-63
2022/04/02 10:06:47;;;;;;;3.47;2.77;;;8.00;61.10;;;;;;5075292;28;20436;-63
2022/04/02 10:09:15;;;;;;;5.07;2.80;;;8.10;60.10;;;;;;5075538;28;20946;-64
2022/04/02 10:11:48;;;;;;;4.07;2.83;;;8.20;61.70;;;;;;5075364;28;20982;-63
2022/04/02 10:14:22;;;;;;;3.83;2.70;;;8.20;62.00;;;;;;5075870;28;20425;-63
2022/04/02 10:16:51;;;;;;;3.10;2.80;;;8.30;61.10;;;;;;5075760;28;20437;-63
2022/04/02 10:19:19;;;;;;;3.20;2.90;;;8.30;59.80;;;;;;5075444;28;20457;-63
2022/04/02 10:21:50;;;;;;;3.90;3.50;;;8.30;60.00;;;;;;5075433;28;20551;-64
2022/04/02 10:24:22;;;;;;;6.00;2.97;;;8.30;59.40;;;;;;5075488;28;20919;-64
2022/04/02 10:26:53;;;;;;;4.50;3.37;;;8.50;60.50;;;;;;5075519;28;20433;-63
2022/04/02 10:29:40;;;;;;;3.70;3.50;;;8.60;60.70;;;;;;5075408;28;20432;-63
2022/04/02 10:32:24;;;;;;;3.73;3.03;;;8.80;58.60;;;;;;5062264;28;20480;-63
2022/04/02 10:34:56;;;;;;;3.37;3.00;;;8.70;58.00;;;;;;5075282;28;20440;-63
2022/04/02 10:37:35;;;;;;;3.70;2.97;;;8.60;57.80;;;;;;5075207;28;20469;-63
2022/04/02 10:40:05;;;;;;;4.40;3.40;;;8.60;57.40;;;;;;5073795;28;20448;-63
2022/04/02 10:42:34;;;;;;;4.10;3.10;;;8.80;58.20;;;;;;5075154;28;20468;-65
2022/04/02 10:45:06;;;;;;;3.60;3.03;;;9.10;59.30;;;;;;5074765;28;21045;-64
2022/04/02 10:47:42;;;;;;;6.10;3.17;;;9.40;54.70;;;;;;5074772;28;20965;-63
2022/04/02 10:50:12;;;;;;;4.00;3.07;;;9.70;54.30;;;;;;5075014;28;20472;-64
2022/04/02 10:52:44;;;;;;;56.73;5.07;;;10.10;55.10;;;;;;5074840;28;20460;-65
2022/04/02 10:55:12;;;;;;;4.50;3.63;;;10.70;55.60;;;;;;5074625;28;20425;-64
2022/04/02 10:57:39;;;;;;;3.67;3.37;;;11.10;54.90;;;;;;5074919;28;20433;-65
2022/04/02 11:00:08;;;;;;;4.73;3.07;;;11.50;54.20;;;;;;5074512;28;20460;-66
2022/04/02 11:02:41;;;;;;;3.90;3.53;;;11.70;52.60;;;;;;5074623;28;20532;-65
2022/04/02 11:05:10;;;;;;;6.63;3.80;;;12.00;52.50;;;;;;5074607;28;20480;-65
2022/04/02 11:07:40;;;;;;;3.97;3.37;;;12.10;51.80;;;;;;5074699;28;20444;-67
2022/04/02 11:10:14;;;;;;;4.30;3.90;;;12.10;50.10;;;;;;5074615;28;20448;-66
2022/04/02 11:12:44;;;;;;;5.13;3.60;;;12.00;49.90;;;;;;5074595;28;20480;-66
2022/04/02 11:15:13;;;;;;;4.83;3.93;;;11.90;50.00;;;;;;5074502;28;20499;-66
2022/04/02 11:17:42;;;;;;;4.43;3.77;;;11.70;49.50;;;;;;5074502;28;20444;-65
2022/04/02 11:20:11;;;;;;;4.30;3.90;;;11.40;50.50;;;;;;5073859;28;20496;-66
2022/04/02 11:23:20;;;;;;;7.10;4.67;;;11.00;51.10;;;;;;5074026;28;21010;-66
2022/04/02 11:25:50;;;;;;;4.67;4.07;;;10.80;52.30;;;;;;5074323;28;20507;-66
2022/04/02 11:28:18;;;;;;;9.03;4.87;;;10.60;53.90;;;;;;5074401;28;20437;-66
2022/04/02 11:30:47;;;;;;;6.97;4.90;;;10.40;54.10;;;;;;5074345;28;20472;-66
2022/04/02 11:33:21;;;;;;;5.43;4.83;;;10.20;55.30;;;;;;5073049;28;20491;-65
2022/04/02 11:35:52;;;;;;;6.27;5.10;;;10.10;55.40;;;;;;5074067;28;20468;-65
2022/04/02 11:38:39;;;;;;;5.13;4.73;;;10.10;56.20;;;;;;5073649;28;20833;-67
2022/04/02 11:41:21;;;;;;;5.93;5.40;;;10.10;56.40;;;;;;5074069;28;20469;-65
2022/04/02 11:43:52;;;;;;;7.00;5.93;;;10.20;56.70;;;;;;5074058;28;20458;-65
2022/04/02 11:46:21;;;;;;;8.60;6.70;;;10.30;57.10;;;;;;5073740;28;20503;-65
2022/04/02 11:48:55;;;;;;;5.40;4.90;;;10.40;58.10;;;;;;5074277;28;20480;-65
2022/04/02 11:51:24;;;;;;;7.53;5.97;;;10.50;58.00;;;;;;5073042;28;20468;-66
2022/04/02 11:53:52;;;;;;;4.97;4.57;;;10.60;56.90;;;;;;5073105;28;20452;-67
2022/04/02 11:56:29;;;;;;;5.57;5.07;;;11.00;57.00;;;;;;5073390;28;20445;-67
2022/04/02 11:58:58;;;;;;;5.80;5.20;;;11.60;55.60;;;;;;5073952;28;20436;-67
2022/04/02 12:01:25;;;;;;;4.70;4.30;;;12.20;53.40;;;;;;5073225;28;20475;-67
2022/04/02 12:04:09;;;;;;;5.23;4.73;;;12.80;52.20;;;;;;5073921;28;20449;-66
2022/04/02 12:06:38;;;;;;;5.13;4.63;;;13.20;51.10;;;;;;5074073;28;20439;-68
2022/04/02 12:09:13;;;;;;;5.03;4.37;;;13.30;50.50;;;;;;5073423;28;20904;-68
2022/04/02 12:11:44;;;;;;;6.13;5.53;;;13.30;49.90;;;;;;5073268;28;21055;-67
2022/04/02 12:14:21;;;;;;;6.97;6.27;;;13.00;50.00;;;;;;5073626;28;20430;-67
2022/04/02 12:16:49;;;;;;;7.63;7.03;;;12.70;50.70;;;;;;5073576;28;20440;-68
2022/04/02 12:19:18;;;;;;;7.33;6.73;;;12.60;51.80;;;;;;5073036;28;20471;-66
2022/04/02 12:21:45;;;;;;;7.93;7.13;;;12.60;52.20;;;;;;5073357;28;20484;-67
2022/04/02 12:24:13;;;;;;;8.50;7.70;;;12.60;52.30;;;;;;5073511;28;20487;-67
2022/04/02 12:26:40;;;;;;;7.20;6.50;;;13.00;52.80;;;;;;5073100;28;20963;-67
2022/04/02 12:29:09;;;;;;;6.93;5.30;;;13.40;51.80;;;;;;5073040;28;20980;-67
2022/04/02 12:31:38;;;;;;;5.87;5.27;;;13.60;51.70;;;;;;5072784;28;20464;-67
2022/04/02 12:34:06;;;;;;;5.33;4.83;;;13.60;50.50;;;;;;5073394;28;20452;-68
2022/04/02 12:36:34;;;;;;;5.03;4.30;;;13.80;50.60;;;;;;5073375;28;20448;-68
2022/04/02 12:39:03;;;;;;;5.20;4.70;;;13.80;49.80;;;;;;5073239;28;20531;-66
2022/04/02 12:41:32;;;;;;;5.17;4.00;;;13.70;49.30;;;;;;5073005;28;20971;-66
2022/04/02 12:44:03;;;;;;;4.23;3.90;;;13.60;49.10;;;;;;5073135;28;20452;-66
2022/04/02 12:46:32;;;;;;;4.50;4.10;;;13.50;49.00;;;;;;5073313;28;20437;-65
2022/04/02 12:49:00;;;;;;;5.00;4.60;;;13.50;49.40;;;;;;5073233;28;20437;-66
2022/04/02 12:51:28;;;;;;;5.30;4.80;;;13.40;49.90;;;;;;5072790;28;20483;-67
2022/04/02 12:56:41;;;;;;;5.70;5.20;;;12.90;51.40;;;;;;5075721;28;20437;-66
2022/04/02 12:59:18;;;;;;;5.50;5.00;;;12.60;52.60;;;;;;5073038;28;20448;-66
2022/04/02 13:01:48;;;;;;;9.63;5.33;;;12.80;53.60;;;;;;5073013;28;20521;-66
2022/04/02 13:04:15;;;;;;;6.93;5.90;;;13.00;53.10;;;;;;5072652;28;20445;-66
2022/04/02 13:06:49;;;;;;;8.17;7.43;;;13.30;53.50;;;;;;5072908;28;20452;-67
2022/04/02 13:09:17;;;;;;;9.73;7.50;;;13.50;53.00;;;;;;5072959;28;20873;-67
2022/04/02 13:12:04;;;;;;;7.17;6.53;;;13.30;51.80;;;;;;5073106;28;20504;-64
2022/04/02 13:14:42;;;;;;;7.97;7.27;;;12.90;52.30;;;;;;5072999;28;20444;-65
2022/04/02 13:17:12;;;;;;;10.43;8.90;;;12.40;53.50;;;;;;5072919;28;20490;-65